sensor_id;sensor_type;location;lat;lon;timestamp;P1;durP1;ratioP1;P2;durP2;ratioP2
8474;SDS011;4274;52.012;8.448;2022-12-04T00:01:46;93.27;;;25.80;;
8474;SDS011;4274;52.012;8.448;2022-12-04T00:04:12;104.27;;;30.00;;
8474;SDS011;4274;52.012;8.448;2022-12-04T00:06:37;101.60;;;27.23;;
8474;SDS011;4274;52.012;8.448;2022-12-04T00:09:03;93.93;;;27.07;;
8474;SDS011;4274;52.012;8.448;2022-12-04T00:11:29;97.67;;;27.10;;
8474;SDS011;4274;52.012;8.448;2022-12-04T00:13:56;101.67;;;29.90;;
8474;SDS011;4274;52.012;8.448;2022-12-04T00:16:24;97.53;;;28.20;;
8474;SDS011;4274;52.012;8.448;2022-12-04T00:18:51;95.43;;;27.90;;
8474;SDS011;4274;52.012;8.448;2022-12-04T00:21:17;90.83;;;26.00;;
8474;SDS011;4274;52.012;8.448;2022-12-04T00:23:44;97.10;;;27.87;;
8474;SDS011;4274;52.012;8.448;2022-12-04T00:26:12;95.33;;;27.90;;
8474;SDS011;4274;52.012;8.448;2022-12-04T00:28:43;90.00;;;26.50;;
8474;SDS011;4274;52.012;8.448;2022-12-04T00:31:10;98.20;;;27.20;;
8474;SDS011;4274;52.012;8.448;2022-12-04T00:33:41;98.43;;;29.10;;
8474;SDS011;4274;52.012;8.448;2022-12-04T00:36:08;95.43;;;29.37;;
8474;SDS011;4274;52.012;8.448;2022-12-04T00:38:36;91.60;;;26.70;;
8474;SDS011;4274;52.012;8.448;2022-12-04T00:41:02;98.33;;;29.10;;
8474;SDS011;4274;52.012;8.448;2022-12-04T00:43:28;98.47;;;27.10;;
8474;SDS011;4274;52.012;8.448;2022-12-04T00:45:55;97.53;;;27.47;;
8474;SDS011;4274;52.012;8.448;2022-12-04T00:48:20;99.93;;;27.23;;
8474;SDS011;4274;52.012;8.448;2022-12-04T00:50:47;102.70;;;30.50;;
8474;SDS011;4274;52.012;8.448;2022-12-04T00:53:12;99.37;;;27.73;;
8474;SDS011;4274;52.012;8.448;2022-12-04T00:55:38;103.73;;;28.30;;
8474;SDS011;4274;52.012;8.448;2022-12-04T00:58:05;92.30;;;25.90;;
8474;SDS011;4274;52.012;8.448;2022-12-04T01:00:32;94.07;;;26.47;;
8474;SDS011;4274;52.012;8.448;2022-12-04T01:02:58;94.77;;;28.67;;
8474;SDS011;4274;52.012;8.448;2022-12-04T01:05:24;92.73;;;26.23;;
8474;SDS011;4274;52.012;8.448;2022-12-04T01:07:50;94.50;;;28.77;;
8474;SDS011;4274;52.012;8.448;2022-12-04T01:10:16;103.87;;;27.77;;
8474;SDS011;4274;52.012;8.448;2022-12-04T01:12:42;95.90;;;27.50;;
8474;SDS011;4274;52.012;8.448;2022-12-04T01:15:08;98.23;;;26.60;;
8474;SDS011;4274;52.012;8.448;2022-12-04T01:17:33;104.57;;;27.83;;
8474;SDS011;4274;52.012;8.448;2022-12-04T01:19:59;102.77;;;29.60;;
8474;SDS011;4274;52.012;8.448;2022-12-04T01:22:24;95.87;;;26.13;;
8474;SDS011;4274;52.012;8.448;2022-12-04T01:24:53;95.40;;;26.83;;
8474;SDS011;4274;52.012;8.448;2022-12-04T01:27:19;98.57;;;26.07;;
8474;SDS011;4274;52.012;8.448;2022-12-04T01:29:45;97.00;;;26.10;;
8474;SDS011;4274;52.012;8.448;2022-12-04T01:32:10;101.37;;;30.57;;
8474;SDS011;4274;52.012;8.448;2022-12-04T01:34:36;108.70;;;28.93;;
8474;SDS011;4274;52.012;8.448;2022-12-04T01:37:01;98.27;;;28.10;;
8474;SDS011;4274;52.012;8.448;2022-12-04T01:39:27;99.63;;;29.07;;
8474;SDS011;4274;52.012;8.448;2022-12-04T01:41:52;102.40;;;28.73;;
8474;SDS011;4274;52.012;8.448;2022-12-04T01:44:21;93.63;;;25.93;;
8474;SDS011;4274;52.012;8.448;2022-12-04T01:46:55;101.73;;;28.70;;
8474;SDS011;4274;52.012;8.448;2022-12-04T01:49:43;100.50;;;26.27;;
8474;SDS011;4274;52.012;8.448;2022-12-04T01:54:40;100.73;;;27.40;;
8474;SDS011;4274;52.012;8.448;2022-12-04T01:57:27;93.97;;;27.50;;
8474;SDS011;4274;52.012;8.448;2022-12-04T02:00:00;98.07;;;26.63;;
8474;SDS011;4274;52.012;8.448;2022-12-04T02:02:30;91.77;;;25.90;;
8474;SDS011;4274;52.012;8.448;2022-12-04T02:04:59;98.87;;;28.27;;
8474;SDS011;4274;52.012;8.448;2022-12-04T02:07:26;97.93;;;25.93;;
8474;SDS011;4274;52.012;8.448;2022-12-04T02:09:52;102.47;;;29.57;;
8474;SDS011;4274;52.012;8.448;2022-12-04T02:15:29;103.17;;;29.03;;
8474;SDS011;4274;52.012;8.448;2022-12-04T02:18:26;107.43;;;27.10;;
8474;SDS011;4274;52.012;8.448;2022-12-04T02:21:02;98.93;;;28.20;;
8474;SDS011;4274;52.012;8.448;2022-12-04T02:28:37;108.13;;;31.37;;
8474;SDS011;4274;52.012;8.448;2022-12-04T02:31:12;99.03;;;28.10;;
8474;SDS011;4274;52.012;8.448;2022-12-04T02:36:31;104.63;;;30.23;;
8474;SDS011;4274;52.012;8.448;2022-12-04T02:39:10;110.73;;;29.53;;
8474;SDS011;4274;52.012;8.448;2022-12-04T02:41:47;104.80;;;28.20;;
8474;SDS011;4274;52.012;8.448;2022-12-04T02:44:36;98.83;;;28.90;;
8474;SDS011;4274;52.012;8.448;2022-12-04T02:47:10;103.23;;;28.80;;
8474;SDS011;4274;52.012;8.448;2022-12-04T02:49:39;98.57;;;29.63;;
8474;SDS011;4274;52.012;8.448;2022-12-04T02:52:10;109.93;;;30.30;;
8474;SDS011;4274;52.012;8.448;2022-12-04T02:54:40;100.97;;;29.43;;
8474;SDS011;4274;52.012;8.448;2022-12-04T02:57:10;106.40;;;29.33;;
8474;SDS011;4274;52.012;8.448;2022-12-04T02:59:41;98.90;;;26.30;;
8474;SDS011;4274;52.012;8.448;2022-12-04T03:02:20;108.63;;;29.60;;
8474;SDS011;4274;52.012;8.448;2022-12-04T03:04:52;89.70;;;25.23;;
8474;SDS011;4274;52.012;8.448;2022-12-04T03:10:24;96.63;;;25.13;;
8474;SDS011;4274;52.012;8.448;2022-12-04T03:12:55;103.53;;;27.37;;
8474;SDS011;4274;52.012;8.448;2022-12-04T03:15:30;107.57;;;27.80;;
8474;SDS011;4274;52.012;8.448;2022-12-04T03:18:17;100.83;;;26.80;;
8474;SDS011;4274;52.012;8.448;2022-12-04T03:20:54;97.27;;;27.20;;
8474;SDS011;4274;52.012;8.448;2022-12-04T03:23:28;98.20;;;26.70;;
8474;SDS011;4274;52.012;8.448;2022-12-04T03:28:59;96.80;;;25.63;;
8474;SDS011;4274;52.012;8.448;2022-12-04T03:34:32;89.60;;;23.93;;
8474;SDS011;4274;52.012;8.448;2022-12-04T03:37:15;94.27;;;25.50;;
8474;SDS011;4274;52.012;8.448;2022-12-04T03:39:54;94.90;;;25.00;;
8474;SDS011;4274;52.012;8.448;2022-12-04T03:42:27;85.47;;;23.00;;
8474;SDS011;4274;52.012;8.448;2022-12-04T03:47:41;93.73;;;25.20;;
8474;SDS011;4274;52.012;8.448;2022-12-04T03:50:21;91.03;;;24.47;;
8474;SDS011;4274;52.012;8.448;2022-12-04T03:52:57;92.73;;;26.23;;
8474;SDS011;4274;52.012;8.448;2022-12-04T03:55:38;98.73;;;24.00;;
8474;SDS011;4274;52.012;8.448;2022-12-04T03:58:28;89.83;;;23.80;;
8474;SDS011;4274;52.012;8.448;2022-12-04T04:00:57;91.27;;;21.70;;
8474;SDS011;4274;52.012;8.448;2022-12-04T04:03:28;78.90;;;21.47;;
8474;SDS011;4274;52.012;8.448;2022-12-04T04:06:32;93.30;;;23.23;;
8474;SDS011;4274;52.012;8.448;2022-12-04T04:08:55;85.37;;;20.90;;
8474;SDS011;4274;52.012;8.448;2022-12-04T04:11:36;88.63;;;23.47;;
8474;SDS011;4274;52.012;8.448;2022-12-04T04:14:16;84.33;;;21.57;;
8474;SDS011;4274;52.012;8.448;2022-12-04T04:17:05;84.23;;;23.07;;
8474;SDS011;4274;52.012;8.448;2022-12-04T04:19:57;89.77;;;21.27;;
8474;SDS011;4274;52.012;8.448;2022-12-04T04:22:45;87.00;;;21.47;;
8474;SDS011;4274;52.012;8.448;2022-12-04T04:25:32;87.63;;;21.20;;
8474;SDS011;4274;52.012;8.448;2022-12-04T04:28:03;80.73;;;21.63;;
8474;SDS011;4274;52.012;8.448;2022-12-04T04:30:28;85.80;;;23.60;;
8474;SDS011;4274;52.012;8.448;2022-12-04T04:33:02;90.57;;;20.60;;
8474;SDS011;4274;52.012;8.448;2022-12-04T04:35:41;92.43;;;23.27;;
8474;SDS011;4274;52.012;8.448;2022-12-04T04:38:26;88.00;;;22.83;;
8474;SDS011;4274;52.012;8.448;2022-12-04T04:41:01;77.40;;;21.20;;
8474;SDS011;4274;52.012;8.448;2022-12-04T04:44:07;89.53;;;20.50;;
8474;SDS011;4274;52.012;8.448;2022-12-04T04:46:54;87.90;;;21.70;;
8474;SDS011;4274;52.012;8.448;2022-12-04T04:49:24;87.07;;;22.37;;
8474;SDS011;4274;52.012;8.448;2022-12-04T04:51:52;75.10;;;19.10;;
8474;SDS011;4274;52.012;8.448;2022-12-04T04:54:19;80.60;;;19.30;;
8474;SDS011;4274;52.012;8.448;2022-12-04T04:56:46;79.57;;;20.17;;
8474;SDS011;4274;52.012;8.448;2022-12-04T04:59:12;81.03;;;20.47;;
8474;SDS011;4274;52.012;8.448;2022-12-04T05:01:39;79.43;;;19.30;;
8474;SDS011;4274;52.012;8.448;2022-12-04T05:04:06;86.20;;;20.47;;
8474;SDS011;4274;52.012;8.448;2022-12-04T05:06:32;82.10;;;19.43;;
8474;SDS011;4274;52.012;8.448;2022-12-04T05:08:58;89.27;;;22.00;;
8474;SDS011;4274;52.012;8.448;2022-12-04T05:11:24;73.97;;;18.83;;
8474;SDS011;4274;52.012;8.448;2022-12-04T05:13:49;84.20;;;18.20;;
8474;SDS011;4274;52.012;8.448;2022-12-04T05:16:15;76.60;;;19.57;;
8474;SDS011;4274;52.012;8.448;2022-12-04T05:18:41;77.23;;;19.03;;
8474;SDS011;4274;52.012;8.448;2022-12-04T05:21:27;75.27;;;18.50;;
8474;SDS011;4274;52.012;8.448;2022-12-04T05:23:53;74.53;;;17.60;;
8474;SDS011;4274;52.012;8.448;2022-12-04T05:26:19;76.50;;;18.63;;
8474;SDS011;4274;52.012;8.448;2022-12-04T05:28:44;69.27;;;16.83;;
8474;SDS011;4274;52.012;8.448;2022-12-04T05:31:10;77.40;;;18.47;;
8474;SDS011;4274;52.012;8.448;2022-12-04T05:33:35;70.07;;;16.43;;
8474;SDS011;4274;52.012;8.448;2022-12-04T05:36:02;72.70;;;14.90;;
8474;SDS011;4274;52.012;8.448;2022-12-04T05:38:32;67.57;;;15.87;;
8474;SDS011;4274;52.012;8.448;2022-12-04T05:40:58;74.60;;;17.30;;
8474;SDS011;4274;52.012;8.448;2022-12-04T05:43:28;69.10;;;16.33;;
8474;SDS011;4274;52.012;8.448;2022-12-04T05:45:54;72.00;;;17.80;;
8474;SDS011;4274;52.012;8.448;2022-12-04T05:48:19;72.07;;;16.60;;
8474;SDS011;4274;52.012;8.448;2022-12-04T05:50:45;71.73;;;15.73;;
8474;SDS011;4274;52.012;8.448;2022-12-04T05:53:10;72.27;;;16.07;;
8474;SDS011;4274;52.012;8.448;2022-12-04T05:55:36;70.63;;;16.70;;
8474;SDS011;4274;52.012;8.448;2022-12-04T05:58:02;73.47;;;18.00;;
8474;SDS011;4274;52.012;8.448;2022-12-04T06:00:28;67.17;;;16.80;;
8474;SDS011;4274;52.012;8.448;2022-12-04T06:02:54;67.63;;;16.70;;
8474;SDS011;4274;52.012;8.448;2022-12-04T06:05:20;66.77;;;16.93;;
8474;SDS011;4274;52.012;8.448;2022-12-04T06:07:45;71.83;;;16.60;;
8474;SDS011;4274;52.012;8.448;2022-12-04T06:10:11;75.27;;;18.83;;
8474;SDS011;4274;52.012;8.448;2022-12-04T06:12:36;72.10;;;17.00;;
8474;SDS011;4274;52.012;8.448;2022-12-04T06:15:02;68.87;;;15.70;;
8474;SDS011;4274;52.012;8.448;2022-12-04T06:17:28;68.70;;;14.80;;
8474;SDS011;4274;52.012;8.448;2022-12-04T06:19:54;68.20;;;15.97;;
8474;SDS011;4274;52.012;8.448;2022-12-04T06:22:20;68.30;;;17.07;;
8474;SDS011;4274;52.012;8.448;2022-12-04T06:24:46;68.63;;;16.23;;
8474;SDS011;4274;52.012;8.448;2022-12-04T06:27:12;67.33;;;16.03;;
8474;SDS011;4274;52.012;8.448;2022-12-04T06:29:37;67.13;;;14.50;;
8474;SDS011;4274;52.012;8.448;2022-12-04T06:32:03;74.97;;;16.33;;
8474;SDS011;4274;52.012;8.448;2022-12-04T06:34:29;73.07;;;16.63;;
8474;SDS011;4274;52.012;8.448;2022-12-04T06:36:54;70.57;;;16.27;;
8474;SDS011;4274;52.012;8.448;2022-12-04T06:39:20;64.60;;;15.37;;
8474;SDS011;4274;52.012;8.448;2022-12-04T06:41:46;67.20;;;17.57;;
8474;SDS011;4274;52.012;8.448;2022-12-04T06:44:12;67.33;;;16.97;;
8474;SDS011;4274;52.012;8.448;2022-12-04T06:46:39;69.50;;;17.87;;
8474;SDS011;4274;52.012;8.448;2022-12-04T06:49:05;73.53;;;17.67;;
8474;SDS011;4274;52.012;8.448;2022-12-04T06:51:32;70.27;;;15.53;;
8474;SDS011;4274;52.012;8.448;2022-12-04T06:53:59;66.47;;;16.00;;
8474;SDS011;4274;52.012;8.448;2022-12-04T06:56:27;67.87;;;16.67;;
8474;SDS011;4274;52.012;8.448;2022-12-04T06:58:56;66.33;;;15.33;;
8474;SDS011;4274;52.012;8.448;2022-12-04T07:01:24;69.67;;;16.77;;
8474;SDS011;4274;52.012;8.448;2022-12-04T07:03:51;70.27;;;16.40;;
8474;SDS011;4274;52.012;8.448;2022-12-04T07:06:24;66.77;;;16.27;;
8474;SDS011;4274;52.012;8.448;2022-12-04T07:08:56;68.63;;;14.87;;
8474;SDS011;4274;52.012;8.448;2022-12-04T07:11:43;65.13;;;14.10;;
8474;SDS011;4274;52.012;8.448;2022-12-04T07:14:09;66.00;;;16.37;;
8474;SDS011;4274;52.012;8.448;2022-12-04T07:16:36;67.67;;;15.97;;
8474;SDS011;4274;52.012;8.448;2022-12-04T07:19:02;61.90;;;15.50;;
8474;SDS011;4274;52.012;8.448;2022-12-04T07:21:30;64.10;;;15.27;;
8474;SDS011;4274;52.012;8.448;2022-12-04T07:23:56;66.83;;;15.87;;
8474;SDS011;4274;52.012;8.448;2022-12-04T07:26:24;62.73;;;16.00;;
8474;SDS011;4274;52.012;8.448;2022-12-04T07:28:51;64.13;;;14.93;;
8474;SDS011;4274;52.012;8.448;2022-12-04T07:31:18;57.97;;;14.00;;
8474;SDS011;4274;52.012;8.448;2022-12-04T07:33:45;61.57;;;14.97;;
8474;SDS011;4274;52.012;8.448;2022-12-04T07:36:12;67.33;;;15.90;;
8474;SDS011;4274;52.012;8.448;2022-12-04T07:38:39;62.50;;;14.00;;
8474;SDS011;4274;52.012;8.448;2022-12-04T07:41:05;63.23;;;14.93;;
8474;SDS011;4274;52.012;8.448;2022-12-04T07:43:32;66.30;;;15.10;;
8474;SDS011;4274;52.012;8.448;2022-12-04T07:45:58;67.00;;;15.30;;
8474;SDS011;4274;52.012;8.448;2022-12-04T07:48:29;66.80;;;16.10;;
8474;SDS011;4274;52.012;8.448;2022-12-04T07:51:02;64.27;;;15.30;;
8474;SDS011;4274;52.012;8.448;2022-12-04T07:53:35;64.07;;;15.90;;
8474;SDS011;4274;52.012;8.448;2022-12-04T07:56:05;66.07;;;16.07;;
8474;SDS011;4274;52.012;8.448;2022-12-04T07:58:31;74.13;;;16.63;;
8474;SDS011;4274;52.012;8.448;2022-12-04T08:01:08;66.37;;;15.53;;
8474;SDS011;4274;52.012;8.448;2022-12-04T08:03:37;63.57;;;15.03;;
8474;SDS011;4274;52.012;8.448;2022-12-04T08:06:04;58.90;;;14.27;;
8474;SDS011;4274;52.012;8.448;2022-12-04T08:08:30;68.70;;;15.70;;
8474;SDS011;4274;52.012;8.448;2022-12-04T08:10:57;62.60;;;15.50;;
8474;SDS011;4274;52.012;8.448;2022-12-04T08:13:22;69.50;;;16.13;;
8474;SDS011;4274;52.012;8.448;2022-12-04T08:15:48;68.10;;;16.20;;
8474;SDS011;4274;52.012;8.448;2022-12-04T08:18:14;76.40;;;18.50;;
8474;SDS011;4274;52.012;8.448;2022-12-04T08:20:39;72.17;;;17.07;;
8474;SDS011;4274;52.012;8.448;2022-12-04T08:23:05;65.87;;;15.27;;
8474;SDS011;4274;52.012;8.448;2022-12-04T08:25:31;75.30;;;17.03;;
8474;SDS011;4274;52.012;8.448;2022-12-04T08:27:56;61.87;;;15.60;;
8474;SDS011;4274;52.012;8.448;2022-12-04T08:30:22;68.80;;;17.37;;
8474;SDS011;4274;52.012;8.448;2022-12-04T08:32:47;63.70;;;16.10;;
8474;SDS011;4274;52.012;8.448;2022-12-04T08:35:13;68.10;;;16.33;;
8474;SDS011;4274;52.012;8.448;2022-12-04T08:37:39;65.60;;;16.80;;
8474;SDS011;4274;52.012;8.448;2022-12-04T08:40:04;70.83;;;16.63;;
8474;SDS011;4274;52.012;8.448;2022-12-04T08:42:30;69.77;;;18.30;;
8474;SDS011;4274;52.012;8.448;2022-12-04T08:44:56;65.67;;;16.70;;
8474;SDS011;4274;52.012;8.448;2022-12-04T08:47:22;88.90;;;18.10;;
8474;SDS011;4274;52.012;8.448;2022-12-04T08:49:47;68.87;;;17.50;;
8474;SDS011;4274;52.012;8.448;2022-12-04T08:52:13;68.57;;;18.07;;
8474;SDS011;4274;52.012;8.448;2022-12-04T08:54:38;74.40;;;17.33;;
8474;SDS011;4274;52.012;8.448;2022-12-04T08:57:04;65.80;;;16.70;;
8474;SDS011;4274;52.012;8.448;2022-12-04T08:59:29;73.80;;;17.33;;
8474;SDS011;4274;52.012;8.448;2022-12-04T09:01:55;68.57;;;17.43;;
8474;SDS011;4274;52.012;8.448;2022-12-04T09:04:20;76.60;;;19.63;;
8474;SDS011;4274;52.012;8.448;2022-12-04T09:06:46;76.87;;;20.70;;
8474;SDS011;4274;52.012;8.448;2022-12-04T09:09:12;83.13;;;19.87;;
8474;SDS011;4274;52.012;8.448;2022-12-04T09:11:37;74.60;;;18.80;;
8474;SDS011;4274;52.012;8.448;2022-12-04T09:14:03;77.10;;;18.80;;
8474;SDS011;4274;52.012;8.448;2022-12-04T09:16:29;78.77;;;18.60;;
8474;SDS011;4274;52.012;8.448;2022-12-04T09:18:55;75.83;;;19.87;;
8474;SDS011;4274;52.012;8.448;2022-12-04T09:21:21;75.63;;;18.30;;
8474;SDS011;4274;52.012;8.448;2022-12-04T09:23:48;75.93;;;19.73;;
8474;SDS011;4274;52.012;8.448;2022-12-04T09:26:16;69.10;;;19.50;;
8474;SDS011;4274;52.012;8.448;2022-12-04T09:28:44;74.03;;;20.03;;
8474;SDS011;4274;52.012;8.448;2022-12-04T09:31:10;81.60;;;20.03;;
8474;SDS011;4274;52.012;8.448;2022-12-04T09:33:36;79.57;;;19.93;;
8474;SDS011;4274;52.012;8.448;2022-12-04T09:36:02;72.80;;;19.97;;
8474;SDS011;4274;52.012;8.448;2022-12-04T09:38:28;81.10;;;21.47;;
8474;SDS011;4274;52.012;8.448;2022-12-04T09:46:31;75.53;;;20.03;;
8474;SDS011;4274;52.012;8.448;2022-12-04T09:49:04;80.60;;;22.50;;
8474;SDS011;4274;52.012;8.448;2022-12-04T09:51:35;81.83;;;22.97;;
8474;SDS011;4274;52.012;8.448;2022-12-04T09:54:06;80.33;;;23.20;;
8474;SDS011;4274;52.012;8.448;2022-12-04T09:56:37;87.63;;;24.07;;
8474;SDS011;4274;52.012;8.448;2022-12-04T09:59:05;82.80;;;22.13;;
8474;SDS011;4274;52.012;8.448;2022-12-04T10:01:53;79.33;;;20.70;;
8474;SDS011;4274;52.012;8.448;2022-12-04T10:04:23;85.97;;;20.60;;
8474;SDS011;4274;52.012;8.448;2022-12-04T10:06:55;86.47;;;21.97;;
8474;SDS011;4274;52.012;8.448;2022-12-04T10:25:42;85.53;;;22.40;;
8474;SDS011;4274;52.012;8.448;2022-12-04T10:30:56;75.30;;;20.90;;
8474;SDS011;4274;52.012;8.448;2022-12-04T10:33:40;81.33;;;22.10;;
8474;SDS011;4274;52.012;8.448;2022-12-04T10:36:13;82.73;;;22.60;;
8474;SDS011;4274;52.012;8.448;2022-12-04T10:38:52;81.93;;;22.60;;
8474;SDS011;4274;52.012;8.448;2022-12-04T10:41:34;85.37;;;23.20;;
8474;SDS011;4274;52.012;8.448;2022-12-04T10:44:07;81.17;;;22.90;;
8474;SDS011;4274;52.012;8.448;2022-12-04T10:46:38;83.60;;;21.83;;
8474;SDS011;4274;52.012;8.448;2022-12-04T10:49:08;92.30;;;24.40;;
8474;SDS011;4274;52.012;8.448;2022-12-04T10:51:48;77.20;;;21.70;;
8474;SDS011;4274;52.012;8.448;2022-12-04T10:56:53;81.47;;;22.27;;
8474;SDS011;4274;52.012;8.448;2022-12-04T10:59:23;90.47;;;23.67;;
8474;SDS011;4274;52.012;8.448;2022-12-04T11:01:49;87.63;;;24.50;;
8474;SDS011;4274;52.012;8.448;2022-12-04T11:04:23;84.30;;;22.70;;
8474;SDS011;4274;52.012;8.448;2022-12-04T11:06:58;87.03;;;23.53;;
8474;SDS011;4274;52.012;8.448;2022-12-04T11:09:30;85.50;;;23.37;;
8474;SDS011;4274;52.012;8.448;2022-12-04T11:12:07;84.40;;;23.20;;
8474;SDS011;4274;52.012;8.448;2022-12-04T11:14:40;86.10;;;23.30;;
8474;SDS011;4274;52.012;8.448;2022-12-04T11:17:06;85.83;;;24.43;;
8474;SDS011;4274;52.012;8.448;2022-12-04T11:19:38;87.47;;;25.27;;
8474;SDS011;4274;52.012;8.448;2022-12-04T11:22:14;83.17;;;23.87;;
8474;SDS011;4274;52.012;8.448;2022-12-04T11:24:41;84.80;;;23.27;;
8474;SDS011;4274;52.012;8.448;2022-12-04T11:27:21;82.37;;;21.83;;
8474;SDS011;4274;52.012;8.448;2022-12-04T11:29:51;77.63;;;22.50;;
8474;SDS011;4274;52.012;8.448;2022-12-04T11:32:19;83.80;;;23.90;;
8474;SDS011;4274;52.012;8.448;2022-12-04T11:34:51;88.17;;;22.60;;
8474;SDS011;4274;52.012;8.448;2022-12-04T11:37:24;80.83;;;21.70;;
8474;SDS011;4274;52.012;8.448;2022-12-04T11:39:52;88.03;;;23.27;;
8474;SDS011;4274;52.012;8.448;2022-12-04T11:42:22;84.47;;;22.80;;
8474;SDS011;4274;52.012;8.448;2022-12-04T11:47:28;76.37;;;21.50;;
8474;SDS011;4274;52.012;8.448;2022-12-04T11:50:38;79.17;;;22.63;;
8474;SDS011;4274;52.012;8.448;2022-12-04T11:53:11;89.97;;;23.50;;
8474;SDS011;4274;52.012;8.448;2022-12-04T11:55:47;77.63;;;21.83;;
8474;SDS011;4274;52.012;8.448;2022-12-04T12:01:45;89.40;;;24.83;;
8474;SDS011;4274;52.012;8.448;2022-12-04T12:09:46;93.53;;;26.10;;
8474;SDS011;4274;52.012;8.448;2022-12-04T12:12:26;91.23;;;24.30;;
8474;SDS011;4274;52.012;8.448;2022-12-04T12:15:02;87.80;;;23.97;;
8474;SDS011;4274;52.012;8.448;2022-12-04T12:20:29;86.57;;;24.30;;
8474;SDS011;4274;52.012;8.448;2022-12-04T12:26:10;90.63;;;25.93;;
8474;SDS011;4274;52.012;8.448;2022-12-04T12:28:53;86.90;;;24.30;;
8474;SDS011;4274;52.012;8.448;2022-12-04T12:34:10;88.70;;;24.57;;
8474;SDS011;4274;52.012;8.448;2022-12-04T12:36:46;96.23;;;25.63;;
8474;SDS011;4274;52.012;8.448;2022-12-04T12:39:22;90.33;;;26.27;;
8474;SDS011;4274;52.012;8.448;2022-12-04T12:42:20;92.10;;;24.67;;
8474;SDS011;4274;52.012;8.448;2022-12-04T12:45:02;87.00;;;25.83;;
8474;SDS011;4274;52.012;8.448;2022-12-04T12:47:33;87.73;;;23.97;;
8474;SDS011;4274;52.012;8.448;2022-12-04T12:50:05;93.17;;;24.40;;
8474;SDS011;4274;52.012;8.448;2022-12-04T12:52:58;87.77;;;24.97;;
8474;SDS011;4274;52.012;8.448;2022-12-04T12:55:44;87.57;;;25.27;;
8474;SDS011;4274;52.012;8.448;2022-12-04T12:58:16;91.10;;;25.33;;
8474;SDS011;4274;52.012;8.448;2022-12-04T13:01:13;94.60;;;27.73;;
8474;SDS011;4274;52.012;8.448;2022-12-04T13:06:32;92.00;;;26.17;;
8474;SDS011;4274;52.012;8.448;2022-12-04T13:11:42;90.27;;;25.60;;
8474;SDS011;4274;52.012;8.448;2022-12-04T13:14:12;86.13;;;23.10;;
8474;SDS011;4274;52.012;8.448;2022-12-04T13:16:40;83.40;;;22.90;;
8474;SDS011;4274;52.012;8.448;2022-12-04T13:19:41;91.83;;;26.50;;
8474;SDS011;4274;52.012;8.448;2022-12-04T13:28:15;87.30;;;22.87;;
8474;SDS011;4274;52.012;8.448;2022-12-04T13:32:59;83.83;;;24.27;;
8474;SDS011;4274;52.012;8.448;2022-12-04T13:41:10;86.43;;;24.43;;
8474;SDS011;4274;52.012;8.448;2022-12-04T13:43:47;86.57;;;23.53;;
8474;SDS011;4274;52.012;8.448;2022-12-04T13:48:47;85.37;;;23.90;;
8474;SDS011;4274;52.012;8.448;2022-12-04T13:53:38;90.37;;;25.47;;
8474;SDS011;4274;52.012;8.448;2022-12-04T13:56:06;86.80;;;24.80;;
8474;SDS011;4274;52.012;8.448;2022-12-04T13:58:47;93.20;;;25.53;;
8474;SDS011;4274;52.012;8.448;2022-12-04T14:01:29;86.23;;;24.50;;
8474;SDS011;4274;52.012;8.448;2022-12-04T14:03:57;88.97;;;25.03;;
8474;SDS011;4274;52.012;8.448;2022-12-04T14:06:25;89.20;;;25.10;;
8474;SDS011;4274;52.012;8.448;2022-12-04T14:09:07;93.23;;;26.10;;
8474;SDS011;4274;52.012;8.448;2022-12-04T14:11:45;90.53;;;25.70;;
8474;SDS011;4274;52.012;8.448;2022-12-04T14:14:22;89.23;;;26.07;;
8474;SDS011;4274;52.012;8.448;2022-12-04T14:16:53;94.57;;;25.07;;
8474;SDS011;4274;52.012;8.448;2022-12-04T14:19:25;95.30;;;27.67;;
8474;SDS011;4274;52.012;8.448;2022-12-04T14:21:57;85.10;;;25.00;;
8474;SDS011;4274;52.012;8.448;2022-12-04T14:24:38;98.60;;;29.40;;
8474;SDS011;4274;52.012;8.448;2022-12-04T14:30:32;83.30;;;25.27;;
8474;SDS011;4274;52.012;8.448;2022-12-04T14:33:05;94.00;;;27.83;;
8474;SDS011;4274;52.012;8.448;2022-12-04T14:35:34;102.07;;;32.10;;
8474;SDS011;4274;52.012;8.448;2022-12-04T14:38:14;112.90;;;35.63;;
8474;SDS011;4274;52.012;8.448;2022-12-04T14:40:46;93.10;;;29.80;;
8474;SDS011;4274;52.012;8.448;2022-12-04T14:43:18;87.53;;;26.07;;
8474;SDS011;4274;52.012;8.448;2022-12-04T14:45:49;92.27;;;25.83;;
8474;SDS011;4274;52.012;8.448;2022-12-04T14:51:07;82.97;;;26.83;;
8474;SDS011;4274;52.012;8.448;2022-12-04T14:59:49;86.97;;;25.17;;
8474;SDS011;4274;52.012;8.448;2022-12-04T15:04:46;86.07;;;24.83;;
8474;SDS011;4274;52.012;8.448;2022-12-04T15:07:17;91.43;;;29.27;;
8474;SDS011;4274;52.012;8.448;2022-12-04T15:09:55;90.50;;;26.43;;
8474;SDS011;4274;52.012;8.448;2022-12-04T15:12:44;94.90;;;26.20;;
8474;SDS011;4274;52.012;8.448;2022-12-04T15:15:25;95.10;;;27.17;;
8474;SDS011;4274;52.012;8.448;2022-12-04T15:20:41;91.07;;;26.00;;
8474;SDS011;4274;52.012;8.448;2022-12-04T15:23:08;89.53;;;26.40;;
8474;SDS011;4274;52.012;8.448;2022-12-04T15:25:42;94.10;;;28.57;;
8474;SDS011;4274;52.012;8.448;2022-12-04T15:31:16;88.10;;;26.43;;
8474;SDS011;4274;52.012;8.448;2022-12-04T15:34:00;88.87;;;26.97;;
8474;SDS011;4274;52.012;8.448;2022-12-04T15:39:16;96.17;;;26.20;;
8474;SDS011;4274;52.012;8.448;2022-12-04T15:41:46;90.23;;;26.67;;
8474;SDS011;4274;52.012;8.448;2022-12-04T15:44:48;89.53;;;26.60;;
8474;SDS011;4274;52.012;8.448;2022-12-04T15:47:15;96.03;;;27.60;;
8474;SDS011;4274;52.012;8.448;2022-12-04T15:49:43;88.87;;;26.17;;
8474;SDS011;4274;52.012;8.448;2022-12-04T15:54:34;94.07;;;27.60;;
8474;SDS011;4274;52.012;8.448;2022-12-04T15:57:03;85.20;;;26.47;;
8474;SDS011;4274;52.012;8.448;2022-12-04T15:59:32;92.90;;;26.20;;
8474;SDS011;4274;52.012;8.448;2022-12-04T16:02:03;89.87;;;25.40;;
8474;SDS011;4274;52.012;8.448;2022-12-04T16:04:32;87.90;;;26.00;;
8474;SDS011;4274;52.012;8.448;2022-12-04T16:06:59;118.97;;;38.80;;
8474;SDS011;4274;52.012;8.448;2022-12-04T16:09:26;96.63;;;31.60;;
8474;SDS011;4274;52.012;8.448;2022-12-04T16:11:59;90.10;;;25.70;;
8474;SDS011;4274;52.012;8.448;2022-12-04T16:14:27;88.80;;;25.80;;
8474;SDS011;4274;52.012;8.448;2022-12-04T16:16:53;89.70;;;26.40;;
8474;SDS011;4274;52.012;8.448;2022-12-04T16:19:33;84.77;;;25.10;;
8474;SDS011;4274;52.012;8.448;2022-12-04T16:22:01;93.03;;;24.80;;
8474;SDS011;4274;52.012;8.448;2022-12-04T16:24:29;85.27;;;23.30;;
8474;SDS011;4274;52.012;8.448;2022-12-04T16:26:55;87.53;;;25.70;;
8474;SDS011;4274;52.012;8.448;2022-12-04T16:29:23;87.20;;;23.70;;
8474;SDS011;4274;52.012;8.448;2022-12-04T16:31:49;93.83;;;26.73;;
8474;SDS011;4274;52.012;8.448;2022-12-04T16:34:15;84.50;;;24.40;;
8474;SDS011;4274;52.012;8.448;2022-12-04T16:36:41;84.53;;;24.47;;
8474;SDS011;4274;52.012;8.448;2022-12-04T16:39:06;95.97;;;29.17;;
8474;SDS011;4274;52.012;8.448;2022-12-04T16:41:32;83.30;;;25.40;;
8474;SDS011;4274;52.012;8.448;2022-12-04T16:43:58;89.87;;;23.97;;
8474;SDS011;4274;52.012;8.448;2022-12-04T16:46:26;80.10;;;22.73;;
8474;SDS011;4274;52.012;8.448;2022-12-04T16:48:52;83.57;;;25.07;;
8474;SDS011;4274;52.012;8.448;2022-12-04T16:51:19;85.20;;;24.20;;
8474;SDS011;4274;52.012;8.448;2022-12-04T16:53:49;78.40;;;21.13;;
8474;SDS011;4274;52.012;8.448;2022-12-04T16:56:16;85.57;;;25.23;;
8474;SDS011;4274;52.012;8.448;2022-12-04T16:58:43;84.37;;;23.80;;
8474;SDS011;4274;52.012;8.448;2022-12-04T17:03:48;89.00;;;24.80;;
8474;SDS011;4274;52.012;8.448;2022-12-04T17:06:14;88.20;;;23.30;;
8474;SDS011;4274;52.012;8.448;2022-12-04T17:08:40;87.40;;;24.37;;
8474;SDS011;4274;52.012;8.448;2022-12-04T17:11:07;83.13;;;24.70;;
8474;SDS011;4274;52.012;8.448;2022-12-04T17:13:35;94.40;;;23.37;;